sensor_id;sensor_type;location;lat;lon;timestamp;P1;durP1;ratioP1;P2;durP2;ratioP2
16294;SDS011;8255;49.560;8.244;2023-04-06T00:01:25;9.23;;;5.80;;
16294;SDS011;8255;49.560;8.244;2023-04-06T00:03:51;5.43;;;4.93;;
16294;SDS011;8255;49.560;8.244;2023-04-06T00:06:18;6.30;;;5.47;;
16294;SDS011;8255;49.560;8.244;2023-04-06T00:08:45;6.13;;;5.40;;
16294;SDS011;8255;49.560;8.244;2023-04-06T00:11:11;7.47;;;5.20;;
16294;SDS011;8255;49.560;8.244;2023-04-06T00:13:39;6.17;;;5.57;;
16294;SDS011;8255;49.560;8.244;2023-04-06T00:16:06;6.17;;;5.07;;
16294;SDS011;8255;49.560;8.244;2023-04-06T00:18:32;5.60;;;5.17;;
16294;SDS011;8255;49.560;8.244;2023-04-06T00:20:58;6.67;;;5.67;;
16294;SDS011;8255;49.560;8.244;2023-04-06T00:23:25;6.23;;;4.87;;
16294;SDS011;8255;49.560;8.244;2023-04-06T00:25:51;5.30;;;4.80;;
16294;SDS011;8255;49.560;8.244;2023-04-06T00:28:18;5.97;;;5.30;;
16294;SDS011;8255;49.560;8.244;2023-04-06T00:30:51;9.23;;;5.83;;
16294;SDS011;8255;49.560;8.244;2023-04-06T00:33:20;8.90;;;6.23;;
16294;SDS011;8255;49.560;8.244;2023-04-06T00:35:46;7.60;;;6.00;;
16294;SDS011;8255;49.560;8.244;2023-04-06T00:38:13;6.27;;;5.63;;
16294;SDS011;8255;49.560;8.244;2023-04-06T00:40:40;10.47;;;6.17;;
16294;SDS011;8255;49.560;8.244;2023-04-06T00:43:06;9.10;;;6.43;;
16294;SDS011;8255;49.560;8.244;2023-04-06T00:45:34;6.00;;;5.40;;
16294;SDS011;8255;49.560;8.244;2023-04-06T00:48:02;7.73;;;5.27;;
16294;SDS011;8255;49.560;8.244;2023-04-06T00:50:28;5.60;;;5.10;;
16294;SDS011;8255;49.560;8.244;2023-04-06T00:52:55;6.63;;;5.43;;
16294;SDS011;8255;49.560;8.244;2023-04-06T00:55:25;9.00;;;6.03;;
16294;SDS011;8255;49.560;8.244;2023-04-06T00:57:52;7.57;;;6.20;;
16294;SDS011;8255;49.560;8.244;2023-04-06T01:00:19;9.80;;;8.67;;
16294;SDS011;8255;49.560;8.244;2023-04-06T01:02:50;14.90;;;10.27;;
16294;SDS011;8255;49.560;8.244;2023-04-06T01:05:21;7.13;;;6.23;;
16294;SDS011;8255;49.560;8.244;2023-04-06T01:07:52;10.47;;;5.97;;
16294;SDS011;8255;49.560;8.244;2023-04-06T01:10:23;6.50;;;4.80;;
16294;SDS011;8255;49.560;8.244;2023-04-06T01:12:54;5.07;;;4.57;;
16294;SDS011;8255;49.560;8.244;2023-04-06T01:15:39;5.33;;;4.83;;
16294;SDS011;8255;49.560;8.244;2023-04-06T01:18:08;6.03;;;5.43;;
16294;SDS011;8255;49.560;8.244;2023-04-06T01:20:39;6.07;;;4.90;;
16294;SDS011;8255;49.560;8.244;2023-04-06T01:23:08;5.50;;;4.77;;
16294;SDS011;8255;49.560;8.244;2023-04-06T01:25:41;5.10;;;4.60;;
16294;SDS011;8255;49.560;8.244;2023-04-06T01:28:08;4.80;;;4.40;;
16294;SDS011;8255;49.560;8.244;2023-04-06T01:30:53;4.50;;;4.10;;
16294;SDS011;8255;49.560;8.244;2023-04-06T01:33:39;4.73;;;4.33;;
16294;SDS011;8255;49.560;8.244;2023-04-06T01:36:09;5.17;;;4.67;;
16294;SDS011;8255;49.560;8.244;2023-04-06T01:38:37;5.13;;;4.43;;
16294;SDS011;8255;49.560;8.244;2023-04-06T01:41:04;4.10;;;3.80;;
16294;SDS011;8255;49.560;8.244;2023-04-06T01:43:40;4.20;;;3.90;;
16294;SDS011;8255;49.560;8.244;2023-04-06T01:46:09;7.73;;;4.67;;
16294;SDS011;8255;49.560;8.244;2023-04-06T01:48:39;5.20;;;4.23;;
16294;SDS011;8255;49.560;8.244;2023-04-06T01:51:14;4.17;;;3.83;;
16294;SDS011;8255;49.560;8.244;2023-04-06T01:54:11;4.20;;;3.80;;
16294;SDS011;8255;49.560;8.244;2023-04-06T01:56:49;4.67;;;4.23;;
16294;SDS011;8255;49.560;8.244;2023-04-06T01:59:27;4.57;;;4.13;;
16294;SDS011;8255;49.560;8.244;2023-04-06T02:01:55;7.50;;;6.70;;
16294;SDS011;8255;49.560;8.244;2023-04-06T02:04:23;22.50;;;17.40;;
16294;SDS011;8255;49.560;8.244;2023-04-06T02:06:55;17.27;;;14.53;;
16294;SDS011;8255;49.560;8.244;2023-04-06T02:09:25;33.50;;;10.27;;
16294;SDS011;8255;49.560;8.244;2023-04-06T02:11:51;6.10;;;4.90;;
16294;SDS011;8255;49.560;8.244;2023-04-06T02:14:18;5.13;;;4.63;;
16294;SDS011;8255;49.560;8.244;2023-04-06T02:16:50;5.60;;;4.93;;
16294;SDS011;8255;49.560;8.244;2023-04-06T02:19:16;5.20;;;4.80;;
16294;SDS011;8255;49.560;8.244;2023-04-06T02:21:43;5.30;;;4.83;;
16294;SDS011;8255;49.560;8.244;2023-04-06T02:24:10;4.77;;;4.37;;
16294;SDS011;8255;49.560;8.244;2023-04-06T02:26:38;5.17;;;4.67;;
16294;SDS011;8255;49.560;8.244;2023-04-06T02:29:05;7.80;;;5.13;;
16294;SDS011;8255;49.560;8.244;2023-04-06T02:31:32;6.63;;;5.90;;
16294;SDS011;8255;49.560;8.244;2023-04-06T02:33:59;12.00;;;10.73;;
16294;SDS011;8255;49.560;8.244;2023-04-06T02:36:28;25.90;;;11.87;;
16294;SDS011;8255;49.560;8.244;2023-04-06T02:38:55;14.73;;;6.77;;
16294;SDS011;8255;49.560;8.244;2023-04-06T02:41:21;6.63;;;5.33;;
16294;SDS011;8255;49.560;8.244;2023-04-06T02:43:50;7.67;;;5.13;;
16294;SDS011;8255;49.560;8.244;2023-04-06T02:46:30;6.10;;;5.50;;
16294;SDS011;8255;49.560;8.244;2023-04-06T02:49:04;5.87;;;5.37;;
16294;SDS011;8255;49.560;8.244;2023-04-06T02:51:33;5.37;;;4.87;;
16294;SDS011;8255;49.560;8.244;2023-04-06T02:54:12;5.60;;;5.10;;
16294;SDS011;8255;49.560;8.244;2023-04-06T02:56:39;5.80;;;5.00;;
16294;SDS011;8255;49.560;8.244;2023-04-06T02:59:07;5.03;;;4.53;;
16294;SDS011;8255;49.560;8.244;2023-04-06T03:01:33;6.83;;;4.60;;
16294;SDS011;8255;49.560;8.244;2023-04-06T03:04:03;5.63;;;5.03;;
16294;SDS011;8255;49.560;8.244;2023-04-06T03:06:29;5.60;;;5.00;;
16294;SDS011;8255;49.560;8.244;2023-04-06T03:09:02;5.70;;;5.10;;
16294;SDS011;8255;49.560;8.244;2023-04-06T03:11:30;5.50;;;5.00;;
16294;SDS011;8255;49.560;8.244;2023-04-06T03:13:57;5.97;;;4.87;;
16294;SDS011;8255;49.560;8.244;2023-04-06T03:16:25;5.63;;;5.13;;
16294;SDS011;8255;49.560;8.244;2023-04-06T03:18:52;5.33;;;4.80;;
16294;SDS011;8255;49.560;8.244;2023-04-06T03:21:20;6.47;;;5.27;;
16294;SDS011;8255;49.560;8.244;2023-04-06T03:23:51;5.53;;;5.03;;
16294;SDS011;8255;49.560;8.244;2023-04-06T03:26:17;6.63;;;5.13;;
16294;SDS011;8255;49.560;8.244;2023-04-06T03:28:44;7.43;;;5.63;;
16294;SDS011;8255;49.560;8.244;2023-04-06T03:31:10;6.70;;;5.67;;
16294;SDS011;8255;49.560;8.244;2023-04-06T03:33:57;8.27;;;7.47;;
16294;SDS011;8255;49.560;8.244;2023-04-06T03:36:29;7.63;;;6.53;;
16294;SDS011;8255;49.560;8.244;2023-04-06T03:38:56;11.20;;;6.67;;
16294;SDS011;8255;49.560;8.244;2023-04-06T03:41:22;6.10;;;5.50;;
16294;SDS011;8255;49.560;8.244;2023-04-06T03:43:56;5.73;;;5.13;;
16294;SDS011;8255;49.560;8.244;2023-04-06T03:46:22;6.27;;;5.07;;
16294;SDS011;8255;49.560;8.244;2023-04-06T03:48:52;4.90;;;4.53;;
16294;SDS011;8255;49.560;8.244;2023-04-06T03:51:22;5.87;;;5.10;;
16294;SDS011;8255;49.560;8.244;2023-04-06T03:53:48;5.43;;;4.97;;
16294;SDS011;8255;49.560;8.244;2023-04-06T03:56:15;5.97;;;5.40;;
16294;SDS011;8255;49.560;8.244;2023-04-06T03:58:41;5.33;;;4.83;;
16294;SDS011;8255;49.560;8.244;2023-04-06T04:01:09;5.60;;;4.93;;
16294;SDS011;8255;49.560;8.244;2023-04-06T04:03:36;5.60;;;5.10;;
16294;SDS011;8255;49.560;8.244;2023-04-06T04:06:02;7.37;;;5.50;;
16294;SDS011;8255;49.560;8.244;2023-04-06T04:08:30;6.03;;;5.43;;
16294;SDS011;8255;49.560;8.244;2023-04-06T04:10:56;6.63;;;5.43;;
16294;SDS011;8255;49.560;8.244;2023-04-06T04:13:23;7.87;;;5.27;;
16294;SDS011;8255;49.560;8.244;2023-04-06T04:15:50;5.90;;;5.40;;
16294;SDS011;8255;49.560;8.244;2023-04-06T04:18:18;5.50;;;4.93;;
16294;SDS011;8255;49.560;8.244;2023-04-06T04:20:44;7.83;;;5.27;;
16294;SDS011;8255;49.560;8.244;2023-04-06T04:23:11;5.80;;;5.13;;
16294;SDS011;8255;49.560;8.244;2023-04-06T04:25:40;5.83;;;5.20;;
16294;SDS011;8255;49.560;8.244;2023-04-06T04:28:06;5.63;;;5.13;;
16294;SDS011;8255;49.560;8.244;2023-04-06T04:30:33;9.00;;;5.20;;
16294;SDS011;8255;49.560;8.244;2023-04-06T04:33:04;7.97;;;5.60;;
16294;SDS011;8255;49.560;8.244;2023-04-06T04:35:31;17.40;;;8.30;;
16294;SDS011;8255;49.560;8.244;2023-04-06T04:37:57;8.23;;;5.87;;
16294;SDS011;8255;49.560;8.244;2023-04-06T04:40:24;7.63;;;5.60;;
16294;SDS011;8255;49.560;8.244;2023-04-06T04:42:59;11.20;;;5.60;;
16294;SDS011;8255;49.560;8.244;2023-04-06T04:45:32;7.30;;;5.10;;
16294;SDS011;8255;49.560;8.244;2023-04-06T04:48:05;7.70;;;5.47;;
16294;SDS011;8255;49.560;8.244;2023-04-06T04:50:45;5.50;;;4.93;;
16294;SDS011;8255;49.560;8.244;2023-04-06T04:53:13;5.53;;;5.03;;
16294;SDS011;8255;49.560;8.244;2023-04-06T04:55:41;6.50;;;5.23;;
16294;SDS011;8255;49.560;8.244;2023-04-06T04:58:11;9.33;;;5.53;;
16294;SDS011;8255;49.560;8.244;2023-04-06T05:00:47;8.33;;;6.37;;
16294;SDS011;8255;49.560;8.244;2023-04-06T05:03:17;13.97;;;10.33;;
16294;SDS011;8255;49.560;8.244;2023-04-06T05:05:45;11.57;;;8.03;;
16294;SDS011;8255;49.560;8.244;2023-04-06T05:08:14;13.13;;;8.60;;
16294;SDS011;8255;49.560;8.244;2023-04-06T05:10:45;9.30;;;7.57;;
16294;SDS011;8255;49.560;8.244;2023-04-06T05:13:13;7.33;;;6.63;;
16294;SDS011;8255;49.560;8.244;2023-04-06T05:15:39;7.80;;;5.90;;
16294;SDS011;8255;49.560;8.244;2023-04-06T05:18:17;7.23;;;5.20;;
16294;SDS011;8255;49.560;8.244;2023-04-06T05:20:44;6.17;;;5.60;;
16294;SDS011;8255;49.560;8.244;2023-04-06T05:23:11;10.43;;;5.47;;
16294;SDS011;8255;49.560;8.244;2023-04-06T05:25:38;7.05;;;6.35;;
16294;SDS011;8255;49.560;8.244;2023-04-06T05:28:14;7.40;;;5.80;;
16294;SDS011;8255;49.560;8.244;2023-04-06T05:30:42;10.40;;;5.73;;
16294;SDS011;8255;49.560;8.244;2023-04-06T05:33:09;8.57;;;6.00;;
16294;SDS011;8255;49.560;8.244;2023-04-06T05:35:55;5.67;;;5.17;;
16294;SDS011;8255;49.560;8.244;2023-04-06T05:38:22;5.90;;;5.30;;
16294;SDS011;8255;49.560;8.244;2023-04-06T05:40:51;5.27;;;4.87;;
16294;SDS011;8255;49.560;8.244;2023-04-06T05:43:23;8.00;;;5.47;;
16294;SDS011;8255;49.560;8.244;2023-04-06T05:45:53;6.67;;;5.13;;
16294;SDS011;8255;49.560;8.244;2023-04-06T05:48:20;6.20;;;5.23;;
16294;SDS011;8255;49.560;8.244;2023-04-06T05:50:47;6.93;;;4.90;;
16294;SDS011;8255;49.560;8.244;2023-04-06T05:53:14;5.73;;;4.83;;
16294;SDS011;8255;49.560;8.244;2023-04-06T05:55:47;5.17;;;4.70;;
16294;SDS011;8255;49.560;8.244;2023-04-06T05:58:17;6.67;;;5.37;;
16294;SDS011;8255;49.560;8.244;2023-04-06T06:00:45;7.07;;;4.90;;
16294;SDS011;8255;49.560;8.244;2023-04-06T06:03:14;6.30;;;4.90;;
16294;SDS011;8255;49.560;8.244;2023-04-06T06:05:46;7.93;;;5.67;;
16294;SDS011;8255;49.560;8.244;2023-04-06T06:08:22;7.23;;;5.67;;
16294;SDS011;8255;49.560;8.244;2023-04-06T06:11:08;6.20;;;5.60;;
16294;SDS011;8255;49.560;8.244;2023-04-06T06:13:37;6.60;;;5.30;;
16294;SDS011;8255;49.560;8.244;2023-04-06T06:16:05;9.43;;;6.60;;
16294;SDS011;8255;49.560;8.244;2023-04-06T06:18:35;7.83;;;7.07;;
16294;SDS011;8255;49.560;8.244;2023-04-06T06:21:02;9.40;;;6.77;;
16294;SDS011;8255;49.560;8.244;2023-04-06T06:23:29;8.90;;;6.97;;
16294;SDS011;8255;49.560;8.244;2023-04-06T06:25:56;7.00;;;6.30;;
16294;SDS011;8255;49.560;8.244;2023-04-06T06:28:24;8.83;;;6.93;;
16294;SDS011;8255;49.560;8.244;2023-04-06T06:30:51;9.07;;;6.77;;
16294;SDS011;8255;49.560;8.244;2023-04-06T06:33:22;10.30;;;6.47;;
16294;SDS011;8255;49.560;8.244;2023-04-06T06:35:52;10.07;;;6.70;;
16294;SDS011;8255;49.560;8.244;2023-04-06T06:38:20;8.03;;;6.90;;
16294;SDS011;8255;49.560;8.244;2023-04-06T06:40:46;8.00;;;7.20;;
16294;SDS011;8255;49.560;8.244;2023-04-06T06:43:14;9.00;;;7.00;;
16294;SDS011;8255;49.560;8.244;2023-04-06T06:45:59;10.20;;;7.77;;
16294;SDS011;8255;49.560;8.244;2023-04-06T06:48:27;8.30;;;7.47;;
16294;SDS011;8255;49.560;8.244;2023-04-06T06:50:53;9.77;;;7.60;;
16294;SDS011;8255;49.560;8.244;2023-04-06T06:53:20;7.73;;;6.83;;
16294;SDS011;8255;49.560;8.244;2023-04-06T06:55:46;7.90;;;6.77;;
16294;SDS011;8255;49.560;8.244;2023-04-06T06:58:13;10.27;;;7.23;;
16294;SDS011;8255;49.560;8.244;2023-04-06T07:00:40;10.67;;;7.93;;
16294;SDS011;8255;49.560;8.244;2023-04-06T07:03:06;8.10;;;7.30;;
16294;SDS011;8255;49.560;8.244;2023-04-06T07:05:34;9.73;;;7.80;;
16294;SDS011;8255;49.560;8.244;2023-04-06T07:08:01;7.77;;;7.07;;
16294;SDS011;8255;49.560;8.244;2023-04-06T07:10:27;11.27;;;7.20;;
16294;SDS011;8255;49.560;8.244;2023-04-06T07:12:53;16.67;;;10.27;;
16294;SDS011;8255;49.560;8.244;2023-04-06T07:15:20;13.23;;;8.40;;
16294;SDS011;8255;49.560;8.244;2023-04-06T07:17:46;8.50;;;7.40;;
16294;SDS011;8255;49.560;8.244;2023-04-06T07:20:13;9.80;;;7.80;;
16294;SDS011;8255;49.560;8.244;2023-04-06T07:22:42;9.10;;;7.67;;
16294;SDS011;8255;49.560;8.244;2023-04-06T07:25:09;11.53;;;7.83;;
16294;SDS011;8255;49.560;8.244;2023-04-06T07:27:35;13.13;;;7.90;;
16294;SDS011;8255;49.560;8.244;2023-04-06T07:30:02;12.80;;;8.20;;
16294;SDS011;8255;49.560;8.244;2023-04-06T07:32:29;12.27;;;8.23;;
16294;SDS011;8255;49.560;8.244;2023-04-06T07:34:56;10.40;;;8.23;;
16294;SDS011;8255;49.560;8.244;2023-04-06T07:37:23;9.03;;;8.13;;
16294;SDS011;8255;49.560;8.244;2023-04-06T07:39:51;8.40;;;7.40;;
16294;SDS011;8255;49.560;8.244;2023-04-06T07:42:18;8.83;;;7.93;;
16294;SDS011;8255;49.560;8.244;2023-04-06T07:44:44;8.63;;;7.73;;
16294;SDS011;8255;49.560;8.244;2023-04-06T07:47:11;11.27;;;7.63;;
16294;SDS011;8255;49.560;8.244;2023-04-06T07:49:37;9.53;;;7.67;;
16294;SDS011;8255;49.560;8.244;2023-04-06T07:52:04;11.50;;;8.37;;
16294;SDS011;8255;49.560;8.244;2023-04-06T07:54:32;9.03;;;7.50;;
16294;SDS011;8255;49.560;8.244;2023-04-06T07:56:59;9.73;;;7.93;;
16294;SDS011;8255;49.560;8.244;2023-04-06T07:59:26;9.23;;;8.33;;
16294;SDS011;8255;49.560;8.244;2023-04-06T08:01:52;9.27;;;8.23;;
16294;SDS011;8255;49.560;8.244;2023-04-06T08:04:19;9.37;;;7.23;;
16294;SDS011;8255;49.560;8.244;2023-04-06T08:06:46;10.50;;;8.25;;
16294;SDS011;8255;49.560;8.244;2023-04-06T08:09:12;9.80;;;7.72;;
16294;SDS011;8255;49.560;8.244;2023-04-06T08:11:38;7.63;;;7.03;;
16294;SDS011;8255;49.560;8.244;2023-04-06T08:14:06;9.50;;;8.13;;
16294;SDS011;8255;49.560;8.244;2023-04-06T08:16:33;10.45;;;8.30;;
16294;SDS011;8255;49.560;8.244;2023-04-06T08:18:59;8.40;;;7.60;;
16294;SDS011;8255;49.560;8.244;2023-04-06T08:21:26;9.00;;;7.80;;
16294;SDS011;8255;49.560;8.244;2023-04-06T08:23:52;8.48;;;7.68;;
16294;SDS011;8255;49.560;8.244;2023-04-06T08:26:19;8.95;;;7.68;;
16294;SDS011;8255;49.560;8.244;2023-04-06T08:28:46;8.13;;;7.43;;
16294;SDS011;8255;49.560;8.244;2023-04-06T08:31:13;7.47;;;6.75;;
16294;SDS011;8255;49.560;8.244;2023-04-06T08:33:40;7.75;;;7.00;;
16294;SDS011;8255;49.560;8.244;2023-04-06T08:36:07;7.22;;;6.60;;
16294;SDS011;8255;49.560;8.244;2023-04-06T08:38:33;7.25;;;6.57;;
16294;SDS011;8255;49.560;8.244;2023-04-06T08:40:59;9.75;;;7.13;;
16294;SDS011;8255;49.560;8.244;2023-04-06T08:43:26;11.57;;;7.13;;
16294;SDS011;8255;49.560;8.244;2023-04-06T08:45:53;8.05;;;7.35;;
16294;SDS011;8255;49.560;8.244;2023-04-06T08:48:21;8.88;;;7.70;;
16294;SDS011;8255;49.560;8.244;2023-04-06T08:50:49;8.82;;;7.93;;
16294;SDS011;8255;49.560;8.244;2023-04-06T08:53:15;8.18;;;7.38;;
16294;SDS011;8255;49.560;8.244;2023-04-06T08:55:42;8.70;;;7.80;;
16294;SDS011;8255;49.560;8.244;2023-04-06T08:58:09;7.85;;;7.07;;
16294;SDS011;8255;49.560;8.244;2023-04-06T09:00:37;8.73;;;8.02;;
16294;SDS011;8255;49.560;8.244;2023-04-06T09:03:04;8.38;;;7.53;;
16294;SDS011;8255;49.560;8.244;2023-04-06T09:05:32;11.93;;;8.30;;
16294;SDS011;8255;49.560;8.244;2023-04-06T09:07:59;8.85;;;8.05;;
16294;SDS011;8255;49.560;8.244;2023-04-06T09:10:25;8.30;;;7.40;;
16294;SDS011;8255;49.560;8.244;2023-04-06T09:13:01;9.88;;;8.20;;
16294;SDS011;8255;49.560;8.244;2023-04-06T09:15:28;9.65;;;8.65;;
16294;SDS011;8255;49.560;8.244;2023-04-06T09:17:55;9.95;;;9.05;;
16294;SDS011;8255;49.560;8.244;2023-04-06T09:20:22;9.32;;;8.43;;
16294;SDS011;8255;49.560;8.244;2023-04-06T09:22:51;11.10;;;8.68;;
16294;SDS011;8255;49.560;8.244;2023-04-06T09:25:18;10.18;;;8.85;;
16294;SDS011;8255;49.560;8.244;2023-04-06T09:27:45;8.88;;;7.97;;
16294;SDS011;8255;49.560;8.244;2023-04-06T09:30:12;10.40;;;8.52;;
16294;SDS011;8255;49.560;8.244;2023-04-06T09:32:44;10.23;;;8.93;;
16294;SDS011;8255;49.560;8.244;2023-04-06T09:35:11;11.68;;;8.30;;
16294;SDS011;8255;49.560;8.244;2023-04-06T09:37:38;9.93;;;8.55;;
16294;SDS011;8255;49.560;8.244;2023-04-06T09:40:06;11.10;;;8.73;;
16294;SDS011;8255;49.560;8.244;2023-04-06T09:42:33;10.02;;;8.85;;
16294;SDS011;8255;49.560;8.244;2023-04-06T09:45:00;9.38;;;8.48;;
16294;SDS011;8255;49.560;8.244;2023-04-06T09:47:26;9.13;;;8.23;;
16294;SDS011;8255;49.560;8.244;2023-04-06T09:49:55;8.77;;;7.95;;
16294;SDS011;8255;49.560;8.244;2023-04-06T09:52:21;9.32;;;8.35;;
16294;SDS011;8255;49.560;8.244;2023-04-06T09:54:50;11.68;;;9.32;;
16294;SDS011;8255;49.560;8.244;2023-04-06T09:57:21;8.98;;;8.02;;
16294;SDS011;8255;49.560;8.244;2023-04-06T09:59:50;8.70;;;7.85;;
16294;SDS011;8255;49.560;8.244;2023-04-06T10:02:22;8.85;;;8.05;;
16294;SDS011;8255;49.560;8.244;2023-04-06T10:04:53;8.65;;;7.78;;
16294;SDS011;8255;49.560;8.244;2023-04-06T10:07:22;8.25;;;7.50;;
16294;SDS011;8255;49.560;8.244;2023-04-06T10:09:49;8.38;;;7.57;;
16294;SDS011;8255;49.560;8.244;2023-04-06T10:12:16;8.50;;;7.63;;
16294;SDS011;8255;49.560;8.244;2023-04-06T10:14:44;9.77;;;8.27;;
16294;SDS011;8255;49.560;8.244;2023-04-06T10:17:11;8.70;;;7.70;;
16294;SDS011;8255;49.560;8.244;2023-04-06T10:19:39;9.40;;;8.27;;
16294;SDS011;8255;49.560;8.244;2023-04-06T10:22:07;9.90;;;8.90;;
16294;SDS011;8255;49.560;8.244;2023-04-06T10:24:35;11.75;;;8.75;;
16294;SDS011;8255;49.560;8.244;2023-04-06T10:27:01;11.07;;;9.00;;
16294;SDS011;8255;49.560;8.244;2023-04-06T10:29:28;11.43;;;9.13;;
16294;SDS011;8255;49.560;8.244;2023-04-06T10:32:08;9.32;;;8.43;;
16294;SDS011;8255;49.560;8.244;2023-04-06T10:34:35;8.48;;;7.63;;
16294;SDS011;8255;49.560;8.244;2023-04-06T10:37:10;8.18;;;7.35;;
16294;SDS011;8255;49.560;8.244;2023-04-06T10:39:45;8.73;;;7.93;;
16294;SDS011;8255;49.560;8.244;2023-04-06T10:42:11;9.77;;;7.43;;
16294;SDS011;8255;49.560;8.244;2023-04-06T10:44:41;7.47;;;6.78;;
16294;SDS011;8255;49.560;8.244;2023-04-06T10:47:15;6.53;;;5.90;;
16294;SDS011;8255;49.560;8.244;2023-04-06T10:49:41;7.13;;;6.50;;
16294;SDS011;8255;49.560;8.244;2023-04-06T10:52:08;7.28;;;6.57;;
16294;SDS011;8255;49.560;8.244;2023-04-06T10:54:34;6.80;;;6.18;;
16294;SDS011;8255;49.560;8.244;2023-04-06T10:57:07;6.53;;;5.93;;
16294;SDS011;8255;49.560;8.244;2023-04-06T10:59:34;7.13;;;5.93;;
16294;SDS011;8255;49.560;8.244;2023-04-06T11:02:00;6.72;;;6.00;;
16294;SDS011;8255;49.560;8.244;2023-04-06T11:04:28;6.35;;;5.70;;
16294;SDS011;8255;49.560;8.244;2023-04-06T11:06:55;9.55;;;6.18;;
16294;SDS011;8255;49.560;8.244;2023-04-06T11:09:23;7.13;;;6.00;;
16294;SDS011;8255;49.560;8.244;2023-04-06T11:11:50;7.93;;;5.72;;
16294;SDS011;8255;49.560;8.244;2023-04-06T11:14:16;6.65;;;5.97;;
16294;SDS011;8255;49.560;8.244;2023-04-06T11:16:43;6.43;;;5.93;;
16294;SDS011;8255;49.560;8.244;2023-04-06T11:19:12;6.05;;;5.55;;
16294;SDS011;8255;49.560;8.244;2023-04-06T11:21:40;6.85;;;5.80;;
16294;SDS011;8255;49.560;8.244;2023-04-06T11:24:09;7.18;;;6.47;;
16294;SDS011;8255;49.560;8.244;2023-04-06T11:26:39;7.07;;;5.97;;
16294;SDS011;8255;49.560;8.244;2023-04-06T11:29:06;6.30;;;5.70;;
16294;SDS011;8255;49.560;8.244;2023-04-06T11:31:37;6.43;;;5.93;;
16294;SDS011;8255;49.560;8.244;2023-04-06T11:34:08;6.60;;;6.00;;
16294;SDS011;8255;49.560;8.244;2023-04-06T11:36:35;5.90;;;5.32;;
16294;SDS011;8255;49.560;8.244;2023-04-06T11:39:03;5.32;;;4.93;;
16294;SDS011;8255;49.560;8.244;2023-04-06T11:41:32;5.70;;;5.20;;
16294;SDS011;8255;49.560;8.244;2023-04-06T11:44:00;6.13;;;5.35;;
16294;SDS011;8255;49.560;8.244;2023-04-06T11:46:26;5.95;;;5.45;;
16294;SDS011;8255;49.560;8.244;2023-04-06T11:48:53;5.85;;;5.35;;
16294;SDS011;8255;49.560;8.244;2023-04-06T11:51:23;6.78;;;5.10;;
16294;SDS011;8255;49.560;8.244;2023-04-06T11:53:51;5.97;;;5.13;;
16294;SDS011;8255;49.560;8.244;2023-04-06T11:56:26;6.03;;;5.25;;
16294;SDS011;8255;49.560;8.244;2023-04-06T11:58:54;5.45;;;5.03;;
16294;SDS011;8255;49.560;8.244;2023-04-06T12:01:20;5.63;;;5.10;;
16294;SDS011;8255;49.560;8.244;2023-04-06T12:03:47;6.07;;;5.15;;
16294;SDS011;8255;49.560;8.244;2023-04-06T12:06:13;4.88;;;4.55;;
16294;SDS011;8255;49.560;8.244;2023-04-06T12:08:39;5.60;;;5.10;;
16294;SDS011;8255;49.560;8.244;2023-04-06T12:11:06;5.72;;;5.10;;
16294;SDS011;8255;49.560;8.244;2023-04-06T12:13:34;4.95;;;4.65;;
16294;SDS011;8255;49.560;8.244;2023-04-06T12:16:00;6.82;;;5.30;;
16294;SDS011;8255;49.560;8.244;2023-04-06T12:18:27;5.38;;;4.93;;
16294;SDS011;8255;49.560;8.244;2023-04-06T12:20:53;5.30;;;4.90;;
16294;SDS011;8255;49.560;8.244;2023-04-06T12:23:20;5.80;;;5.30;;
16294;SDS011;8255;49.560;8.244;2023-04-06T12:25:46;6.40;;;5.40;;
16294;SDS011;8255;49.560;8.244;2023-04-06T12:28:13;5.93;;;5.30;;
16294;SDS011;8255;49.560;8.244;2023-04-06T12:30:41;6.68;;;5.55;;
16294;SDS011;8255;49.560;8.244;2023-04-06T12:33:07;5.90;;;5.38;;
16294;SDS011;8255;49.560;8.244;2023-04-06T12:35:34;5.50;;;5.03;;
16294;SDS011;8255;49.560;8.244;2023-04-06T12:38:00;5.43;;;4.97;;
16294;SDS011;8255;49.560;8.244;2023-04-06T12:40:27;5.35;;;4.85;;
16294;SDS011;8255;49.560;8.244;2023-04-06T12:42:53;5.13;;;4.72;;
16294;SDS011;8255;49.560;8.244;2023-04-06T12:45:19;6.03;;;5.30;;
16294;SDS011;8255;49.560;8.244;2023-04-06T12:47:47;5.47;;;4.97;;
16294;SDS011;8255;49.560;8.244;2023-04-06T12:50:14;6.20;;;5.60;;
16294;SDS011;8255;49.560;8.244;2023-04-06T12:52:40;6.00;;;5.40;;
16294;SDS011;8255;49.560;8.244;2023-04-06T12:55:07;6.63;;;5.55;;
16294;SDS011;8255;49.560;8.244;2023-04-06T12:57:34;5.85;;;5.30;;
16294;SDS011;8255;49.560;8.244;2023-04-06T13:00:00;6.10;;;5.60;;
16294;SDS011;8255;49.560;8.244;2023-04-06T13:02:27;5.72;;;5.15;;
16294;SDS011;8255;49.560;8.244;2023-04-06T13:04:55;5.90;;;5.40;;
16294;SDS011;8255;49.560;8.244;2023-04-06T13:07:21;6.80;;;5.32;;
16294;SDS011;8255;49.560;8.244;2023-04-06T13:09:48;5.50;;;5.00;;
16294;SDS011;8255;49.560;8.244;2023-04-06T13:12:15;5.53;;;5.03;;
16294;SDS011;8255;49.560;8.244;2023-04-06T13:14:42;5.40;;;4.43;;
16294;SDS011;8255;49.560;8.244;2023-04-06T13:17:08;5.40;;;4.90;;
16294;SDS011;8255;49.560;8.244;2023-04-06T13:19:35;5.18;;;4.68;;
16294;SDS011;8255;49.560;8.244;2023-04-06T13:22:02;5.30;;;4.85;;
16294;SDS011;8255;49.560;8.244;2023-04-06T13:24:29;4.68;;;4.25;;
16294;SDS011;8255;49.560;8.244;2023-04-06T13:26:55;4.72;;;4.22;;
16294;SDS011;8255;49.560;8.244;2023-04-06T13:29:22;4.90;;;4.50;;
16294;SDS011;8255;49.560;8.244;2023-04-06T13:31:49;4.32;;;3.92;;
16294;SDS011;8255;49.560;8.244;2023-04-06T13:34:15;5.63;;;4.30;;
16294;SDS011;8255;49.560;8.244;2023-04-06T13:36:41;5.15;;;4.45;;
16294;SDS011;8255;49.560;8.244;2023-04-06T13:39:09;4.85;;;4.40;;
16294;SDS011;8255;49.560;8.244;2023-04-06T13:41:36;4.88;;;4.47;;
16294;SDS011;8255;49.560;8.244;2023-04-06T13:44:02;5.72;;;4.60;;
16294;SDS011;8255;49.560;8.244;2023-04-06T13:46:29;9.10;;;4.40;;
16294;SDS011;8255;49.560;8.244;2023-04-06T13:48:55;6.60;;;4.68;;
16294;SDS011;8255;49.560;8.244;2023-04-06T13:51:21;8.00;;;4.03;;
16294;SDS011;8255;49.560;8.244;2023-04-06T13:53:48;5.30;;;4.50;;
16294;SDS011;8255;49.560;8.244;2023-04-06T13:56:18;5.45;;;4.95;;
16294;SDS011;8255;49.560;8.244;2023-04-06T13:58:45;4.97;;;4.57;;
16294;SDS011;8255;49.560;8.244;2023-04-06T14:01:11;5.30;;;4.22;;
16294;SDS011;8255;49.560;8.244;2023-04-06T14:03:37;6.03;;;4.57;;
16294;SDS011;8255;49.560;8.244;2023-04-06T14:06:10;5.40;;;4.90;;
16294;SDS011;8255;49.560;8.244;2023-04-06T14:08:36;7.47;;;4.80;;
16294;SDS011;8255;49.560;8.244;2023-04-06T14:11:03;10.90;;;4.72;;
16294;SDS011;8255;49.560;8.244;2023-04-06T14:13:31;5.22;;;4.72;;
16294;SDS011;8255;49.560;8.244;2023-04-06T14:15:57;6.22;;;5.45;;
16294;SDS011;8255;49.560;8.244;2023-04-06T14:18:23;5.72;;;4.80;;
16294;SDS011;8255;49.560;8.244;2023-04-06T14:20:56;4.75;;;4.30;;
16294;SDS011;8255;49.560;8.244;2023-04-06T14:23:22;6.65;;;4.57;;
16294;SDS011;8255;49.560;8.244;2023-04-06T14:25:50;5.82;;;5.22;;
16294;SDS011;8255;49.560;8.244;2023-04-06T14:28:17;5.05;;;4.55;;
16294;SDS011;8255;49.560;8.244;2023-04-06T14:30:45;6.50;;;5.43;;
16294;SDS011;8255;49.560;8.244;2023-04-06T14:33:12;5.28;;;4.75;;
16294;SDS011;8255;49.560;8.244;2023-04-06T14:35:38;5.72;;;4.82;;
16294;SDS011;8255;49.560;8.244;2023-04-06T14:38:05;7.55;;;4.45;;
16294;SDS011;8255;49.560;8.244;2023-04-06T14:40:33;5.82;;;4.68;;
16294;SDS011;8255;49.560;8.244;2023-04-06T14:43:00;4.55;;;4.15;;
16294;SDS011;8255;49.560;8.244;2023-04-06T14:45:27;5.82;;;4.80;;
16294;SDS011;8255;49.560;8.244;2023-04-06T14:47:54;5.13;;;4.45;;
16294;SDS011;8255;49.560;8.244;2023-04-06T14:50:21;5.97;;;4.60;;
16294;SDS011;8255;49.560;8.244;2023-04-06T14:52:47;4.43;;;4.03;;
16294;SDS011;8255;49.560;8.244;2023-04-06T14:55:14;3.38;;;3.17;;
16294;SDS011;8255;49.560;8.244;2023-04-06T14:57:41;4.97;;;3.78;;
16294;SDS011;8255;49.560;8.244;2023-04-06T15:00:07;7.32;;;4.30;;
16294;SDS011;8255;49.560;8.244;2023-04-06T15:02:35;6.15;;;4.45;;
16294;SDS011;8255;49.560;8.244;2023-04-06T15:05:03;4.28;;;3.88;;
16294;SDS011;8255;49.560;8.244;2023-04-06T15:07:30;4.85;;;3.83;;